Loveland, Colorado
Current Conditions -  °F | °C
As of 8:55 PM on Friday 24 Oct 2014 (Local Time) from KFNL Reporting Station
Clear Clear  
Wind Chill: 59°   Ceiling: Unl
Heat Index: 59°   Visibility: 10mi
Dew Point: 30°   Wind: 0mph
Humidity: 34%   Direction: NA
Pressure: 30.19"   Gusts: NA
Location:  40.39°N, 105.07°W
Report Text: KFNL 250255Z AUTO 00000KT 10SM CLR 15/M01 A3019 RMK AO1 52020
Loading
Personal Weather Stations






























Interactive Weather Map
Tropical Storm Tracking
New forecast layout! Learn more

10-Day Weather Forecast

Advertisements
Track Severe Weather on mobile